createdAt,value
2018-02-09T00:01:53.959Z,-5.63
2018-02-09T00:04:22.769Z,-5.61
2018-02-09T00:06:51.305Z,-5.64
2018-02-09T00:09:19.769Z,-5.66
2018-02-09T00:11:48.282Z,-5.64
2018-02-09T00:14:17.456Z,-5.67
2018-02-09T00:16:46.754Z,-5.72
2018-02-09T00:19:15.676Z,-5.68
2018-02-09T00:21:46.273Z,-5.65
2018-02-09T00:24:19.081Z,-5.53
2018-02-09T00:26:48.161Z,-5.57
2018-02-09T00:29:16.689Z,-5.66
2018-02-09T00:31:45.256Z,-5.61
2018-02-09T00:34:14.085Z,-5.63
2018-02-09T00:36:42.732Z,-5.68
2018-02-09T00:39:11.227Z,-5.72
2018-02-09T00:41:39.963Z,-5.79
2018-02-09T00:44:08.441Z,-5.68
2018-02-09T00:46:36.952Z,-5.62
2018-02-09T00:49:05.652Z,-5.68
2018-02-09T00:51:34.180Z,-5.73
2018-02-09T00:54:03.640Z,-5.82
2018-02-09T00:56:32.165Z,-5.85
2018-02-09T00:59:00.704Z,-5.88
2018-02-09T01:01:29.229Z,-5.87
2018-02-09T01:03:57.958Z,-5.77
2018-02-09T01:06:26.584Z,-5.79
2018-02-09T01:08:55.249Z,-5.81
2018-02-09T01:11:23.989Z,-5.82
2018-02-09T01:13:52.457Z,-5.91
2018-02-09T01:16:21.159Z,-5.82
2018-02-09T01:18:49.784Z,-5.81
2018-02-09T01:21:18.316Z,-5.83
2018-02-09T01:23:47.256Z,-5.86
2018-02-09T01:26:15.780Z,-5.88
2018-02-09T01:28:44.381Z,-5.89
2018-02-09T01:31:13.653Z,-5.91
2018-02-09T01:33:42.136Z,-5.91
2018-02-09T01:36:11.028Z,-5.91
2018-02-09T01:38:39.721Z,-5.93
2018-02-09T01:41:08.260Z,-5.97
2018-02-09T01:43:36.812Z,-6.01
2018-02-09T01:46:05.338Z,-6.05
2018-02-09T01:48:34.175Z,-5.97
2018-02-09T01:51:02.680Z,-6.01
2018-02-09T01:53:31.136Z,-6.01
2018-02-09T01:55:59.855Z,-6.05
2018-02-09T01:58:28.468Z,-6.07
2018-02-09T02:00:57.032Z,-6.06
2018-02-09T02:03:25.563Z,-6.04
2018-02-09T02:05:54.086Z,-5.93
2018-02-09T02:08:22.544Z,-6.03
2018-02-09T02:10:51.047Z,-6.09
2018-02-09T02:13:19.533Z,-5.96
2018-02-09T02:15:51.112Z,-6.14
2018-02-09T02:18:20.001Z,-6.20
2018-02-09T02:20:48.526Z,-6.24
2018-02-09T02:23:17.004Z,-6.23
2018-02-09T02:25:45.519Z,-6.16
2018-02-09T02:28:14.119Z,-6.13
2018-02-09T02:30:42.630Z,-6.12
2018-02-09T02:33:11.168Z,-6.15
2018-02-09T02:35:39.669Z,-6.15
2018-02-09T02:38:11.276Z,-6.20
2018-02-09T02:40:39.827Z,-6.16
2018-02-09T02:43:08.470Z,-6.21
2018-02-09T02:45:37.007Z,-6.21
2018-02-09T02:48:07.038Z,-6.24
2018-02-09T02:50:38.269Z,-6.22
2018-02-09T02:53:07.192Z,-6.27
2018-02-09T02:55:36.038Z,-6.22
2018-02-09T02:58:04.580Z,-6.18
2018-02-09T03:00:33.119Z,-6.29
2018-02-09T03:03:01.572Z,-6.29
2018-02-09T03:05:30.229Z,-6.21
2018-02-09T03:07:58.835Z,-6.32
2018-02-09T03:10:27.564Z,-6.30
2018-02-09T03:12:56.469Z,-6.11
2018-02-09T03:15:25.109Z,-5.83
2018-02-09T03:17:53.728Z,-6.12
2018-02-09T03:20:22.240Z,-6.24
2018-02-09T03:22:50.731Z,-6.27
2018-02-09T03:25:19.227Z,-6.28
2018-02-09T03:27:47.902Z,-6.29
2018-02-09T03:30:16.613Z,-6.24
2018-02-09T03:32:45.129Z,-6.20
2018-02-09T03:35:13.793Z,-6.21
2018-02-09T03:37:42.447Z,-6.20
2018-02-09T03:40:11.165Z,-6.27
2018-02-09T03:42:39.684Z,-6.27
2018-02-09T03:45:08.321Z,-6.40
2018-02-09T03:47:36.835Z,-6.36
2018-02-09T03:50:05.366Z,-6.42
2018-02-09T03:52:34.000Z,-6.40
2018-02-09T03:55:02.462Z,-6.35
2018-02-09T03:57:31.143Z,-6.36
2018-02-09T03:59:59.561Z,-6.47
2018-02-09T04:02:28.449Z,-6.49
2018-02-09T04:04:57.028Z,-6.47
2018-02-09T04:07:25.950Z,-6.53
2018-02-09T04:09:54.392Z,-6.48
2018-02-09T04:12:22.932Z,-6.56
2018-02-09T04:14:51.497Z,-6.57
2018-02-09T04:17:20.013Z,-6.51
2018-02-09T04:19:48.517Z,-6.55
2018-02-09T04:22:17.045Z,-6.51
2018-02-09T04:24:45.560Z,-6.52
2018-02-09T04:27:14.443Z,-6.54
2018-02-09T04:29:43.068Z,-6.56
2018-02-09T04:32:11.592Z,-6.56
2018-02-09T04:34:40.137Z,-6.47
2018-02-09T04:37:08.686Z,-6.60
2018-02-09T04:39:37.161Z,-6.63
2018-02-09T04:42:05.932Z,-6.55
2018-02-09T04:44:34.574Z,-6.58
2018-02-09T04:47:03.096Z,-6.33
2018-02-09T04:49:31.597Z,-6.34
2018-02-09T04:52:00.260Z,-6.26
2018-02-09T04:54:28.717Z,-6.23
2018-02-09T04:56:57.284Z,-6.23
2018-02-09T04:59:25.750Z,-6.24
2018-02-09T05:04:49.726Z,-6.12
2018-02-09T05:07:18.256Z,-6.17
2018-02-09T05:09:46.566Z,-6.08
2018-02-09T05:12:15.046Z,-6.13
2018-02-09T05:14:43.315Z,-6.00
2018-02-09T05:17:11.826Z,-6.13
2018-02-09T05:19:40.100Z,-6.02
2018-02-09T05:22:08.428Z,-6.03
2018-02-09T05:24:36.823Z,-5.96
2018-02-09T05:27:05.547Z,-5.95
2018-02-09T05:29:40.500Z,-5.92
2018-02-09T05:32:08.865Z,-6.04
2018-02-09T05:34:37.154Z,-5.91
2018-02-09T05:37:05.642Z,-5.99
2018-02-09T05:39:33.980Z,-5.88
2018-02-09T05:42:02.329Z,-5.83
2018-02-09T05:44:30.630Z,-5.81
2018-02-09T05:46:58.959Z,-5.39
2018-02-09T05:49:27.255Z,-5.57
2018-02-09T05:51:55.567Z,-5.34
2018-02-09T05:54:23.833Z,-5.41
2018-02-09T05:56:52.142Z,-5.38
2018-02-09T05:59:20.435Z,-5.16
2018-02-09T06:01:48.823Z,-5.38
2018-02-09T06:04:17.204Z,-5.30
2018-02-09T06:06:45.534Z,-5.16
2018-02-09T06:09:13.827Z,-5.07
2018-02-09T06:11:42.298Z,-5.10
2018-02-09T06:14:10.695Z,-4.95
2018-02-09T06:16:39.051Z,-4.93
2018-02-09T06:19:07.499Z,-4.74
2018-02-09T06:21:35.819Z,-4.87
2018-02-09T06:24:04.144Z,-4.80
2018-02-09T06:26:32.475Z,-4.48
2018-02-09T06:29:00.786Z,-4.45
2018-02-09T06:31:29.091Z,-4.57
2018-02-09T06:33:57.571Z,-4.42
2018-02-09T06:36:25.902Z,-4.36
2018-02-09T06:38:54.299Z,-4.40
2018-02-09T06:41:22.620Z,-4.11
2018-02-09T06:43:51.059Z,-3.94
2018-02-09T06:46:19.378Z,-4.09
2018-02-09T06:48:47.691Z,-4.13
2018-02-09T06:51:16.391Z,-4.08
2018-02-09T06:53:44.942Z,-3.98
2018-02-09T06:56:13.260Z,-3.94
2018-02-09T06:58:41.564Z,-3.32
2018-02-09T07:01:10.016Z,-3.57
2018-02-09T07:03:38.423Z,-3.58
2018-02-09T07:06:06.763Z,-3.53
2018-02-09T07:08:35.337Z,-3.47
2018-02-09T07:11:03.858Z,-3.18
2018-02-09T07:13:32.175Z,-3.09
2018-02-09T07:16:00.637Z,-3.08
2018-02-09T07:18:29.197Z,-3.44
2018-02-09T07:22:00.336Z,-3.47
2018-02-09T07:24:29.172Z,-3.28
2018-02-09T07:26:57.534Z,-3.30
2018-02-09T07:29:25.906Z,-3.19
2018-02-09T07:31:54.287Z,-3.09
2018-02-09T07:34:22.602Z,-3.09
2018-02-09T07:36:51.052Z,-2.80
2018-02-09T07:39:19.391Z,-2.64
2018-02-09T07:41:47.729Z,-2.50
2018-02-09T07:44:16.187Z,-2.32
2018-02-09T07:46:44.615Z,-2.27
2018-02-09T07:49:12.933Z,-2.24
2018-02-09T07:51:41.307Z,-2.24
2018-02-09T07:54:09.772Z,-2.13
2018-02-09T07:56:38.092Z,-2.17
2018-02-09T07:59:06.478Z,-2.23
2018-02-09T08:01:34.929Z,-2.18
2018-02-09T08:04:03.238Z,-1.95
2018-02-09T08:06:33.110Z,-2.06
2018-02-09T08:09:01.740Z,-1.88
2018-02-09T08:11:30.263Z,-2.07
2018-02-09T08:13:59.493Z,-2.09
2018-02-09T08:16:27.903Z,-2.02
2018-02-09T08:18:59.734Z,-1.79
2018-02-09T08:21:29.756Z,-1.66
2018-02-09T08:23:58.468Z,-1.63
2018-02-09T08:26:27.004Z,-1.79
2018-02-09T08:28:55.568Z,-1.68
2018-02-09T08:31:23.925Z,-1.47
2018-02-09T08:33:52.682Z,-1.56
2018-02-09T08:36:22.058Z,-1.32
2018-02-09T08:38:50.464Z,-0.97
2018-02-09T08:41:18.863Z,-1.20
2018-02-09T08:43:47.463Z,-1.33
2018-02-09T08:46:15.811Z,-1.19
2018-02-09T08:48:44.227Z,-0.93
2018-02-09T08:51:12.575Z,-1.06
2018-02-09T08:53:40.918Z,-1.13
2018-02-09T08:56:09.613Z,-0.78
2018-02-09T08:58:37.963Z,-1.01
2018-02-09T09:01:06.903Z,-0.75
2018-02-09T09:03:35.187Z,-0.87
2018-02-09T09:06:03.680Z,-0.94
2018-02-09T09:08:32.159Z,-1.24
2018-02-09T09:11:00.512Z,-0.96
2018-02-09T09:13:29.091Z,-1.27
2018-02-09T09:15:57.440Z,-1.27
2018-02-09T09:18:25.945Z,-1.04
2018-02-09T09:20:54.322Z,-0.92
2018-02-09T09:23:22.674Z,-0.83
2018-02-09T09:25:51.077Z,-0.83
2018-02-09T09:28:19.433Z,-0.70
2018-02-09T09:30:47.820Z,-0.32
2018-02-09T09:33:16.127Z,-0.10
2018-02-09T09:35:44.535Z,-0.05
2018-02-09T09:38:13.037Z,0.33
2018-02-09T09:40:41.540Z,0.53
2018-02-09T09:43:09.867Z,0.18
2018-02-09T09:45:38.255Z,0.10
2018-02-09T09:48:06.570Z,0.27
2018-02-09T09:50:34.892Z,0.37
2018-02-09T09:53:03.339Z,0.43
2018-02-09T09:55:32.198Z,0.38
2018-02-09T09:58:00.706Z,0.77
2018-02-09T10:00:29.193Z,0.78
2018-02-09T10:02:57.651Z,0.83
2018-02-09T10:05:26.302Z,0.82
2018-02-09T10:07:54.663Z,1.55
2018-02-09T10:10:23.011Z,1.36
2018-02-09T10:12:52.192Z,1.32
2018-02-09T10:15:20.543Z,1.11
2018-02-09T10:17:48.915Z,1.12
2018-02-09T10:20:17.276Z,1.35
2018-02-09T10:22:45.613Z,1.07
2018-02-09T10:25:14.171Z,1.16
2018-02-09T10:27:43.619Z,0.93
2018-02-09T10:30:12.331Z,0.84
2018-02-09T10:32:40.763Z,1.15
2018-02-09T10:35:10.222Z,1.42
2018-02-09T10:37:38.806Z,1.47
2018-02-09T10:40:07.635Z,1.88
2018-02-09T10:42:36.331Z,1.26
2018-02-09T10:45:04.706Z,1.42
2018-02-09T10:47:33.183Z,1.61
2018-02-09T10:50:01.582Z,1.58
2018-02-09T10:52:30.040Z,1.60
2018-02-09T10:54:58.435Z,1.76
2018-02-09T10:57:26.808Z,1.66
2018-02-09T10:59:55.090Z,1.56
2018-02-09T11:02:23.423Z,1.46
2018-02-09T11:04:51.830Z,1.84
2018-02-09T11:07:20.185Z,1.69
2018-02-09T11:09:48.462Z,1.98
2018-02-09T11:12:21.444Z,1.96
2018-02-09T11:14:50.866Z,2.25
2018-02-09T11:17:19.701Z,2.41
2018-02-09T11:19:48.807Z,2.26
2018-02-09T11:22:17.214Z,1.91
2018-02-09T11:24:45.730Z,1.81
2018-02-09T11:27:14.095Z,1.68
2018-02-09T11:29:42.424Z,1.49
2018-02-09T11:32:10.747Z,1.67
2018-02-09T11:34:39.099Z,1.68
2018-02-09T11:37:07.506Z,1.85
2018-02-09T11:39:35.806Z,1.86
2018-02-09T11:42:04.595Z,1.61
2018-02-09T11:44:34.538Z,1.88
2018-02-09T11:47:03.194Z,1.91
2018-02-09T11:49:32.480Z,1.87
2018-02-09T11:52:00.787Z,2.04
2018-02-09T11:54:29.168Z,2.33
2018-02-09T11:56:57.722Z,2.28
2018-02-09T11:59:26.125Z,2.54
2018-02-09T12:01:54.681Z,2.48
2018-02-09T12:04:23.119Z,2.30
2018-02-09T12:06:51.478Z,2.30
2018-02-09T12:09:19.872Z,2.56
2018-02-09T12:11:49.036Z,2.93
2018-02-09T12:14:17.367Z,3.60
2018-02-09T12:16:46.396Z,3.09
2018-02-09T12:19:14.758Z,3.88
2018-02-09T12:21:43.156Z,3.91
2018-02-09T12:24:11.520Z,2.91
2018-02-09T12:26:43.068Z,3.98
2018-02-09T12:29:11.438Z,5.42
2018-02-09T12:31:39.930Z,7.56
2018-02-09T12:34:08.443Z,8.18
2018-02-09T12:36:36.907Z,8.33
2018-02-09T12:39:05.696Z,5.51
2018-02-09T12:41:34.122Z,5.23
2018-02-09T12:44:02.580Z,4.41
2018-02-09T12:46:30.996Z,3.98
2018-02-09T12:48:59.387Z,4.62
2018-02-09T12:51:27.696Z,4.06
2018-02-09T12:53:56.070Z,3.53
2018-02-09T12:56:24.426Z,4.07
2018-02-09T12:58:52.748Z,4.69
2018-02-09T13:01:21.117Z,4.19
2018-02-09T13:03:49.606Z,5.57
2018-02-09T13:06:17.960Z,4.40
2018-02-09T13:08:46.272Z,4.55
2018-02-09T13:11:14.619Z,3.83
2018-02-09T13:13:42.966Z,3.64
2018-02-09T13:16:11.276Z,4.11
2018-02-09T13:18:48.706Z,3.92
2018-02-09T13:21:17.051Z,3.32
2018-02-09T13:24:26.091Z,3.82
2018-02-09T13:26:57.591Z,4.66
2018-02-09T13:29:25.936Z,5.12
2018-02-09T13:31:54.270Z,5.16
2018-02-09T13:34:22.594Z,4.22
2018-02-09T13:37:42.880Z,4.64
2018-02-09T13:40:11.346Z,5.18
2018-02-09T13:42:39.654Z,5.85
2018-02-09T13:45:08.068Z,5.21
2018-02-09T13:47:36.343Z,5.94
2018-02-09T13:50:04.712Z,6.21
2018-02-09T13:52:33.378Z,7.38
2018-02-09T13:55:01.877Z,7.64
2018-02-09T13:57:30.362Z,5.68
2018-02-09T13:59:58.679Z,4.51
2018-02-09T14:02:27.050Z,5.13
2018-02-09T14:04:55.343Z,4.80
2018-02-09T14:07:23.752Z,4.99
2018-02-09T14:09:52.115Z,5.61
2018-02-09T14:12:20.471Z,6.53
2018-02-09T14:14:48.795Z,4.89
2018-02-09T14:17:17.283Z,4.27
2018-02-09T14:19:45.598Z,3.37
2018-02-09T14:22:14.194Z,3.38
2018-02-09T14:24:42.536Z,3.22
2018-02-09T14:27:10.908Z,3.22
2018-02-09T14:29:39.372Z,3.63
2018-02-09T14:32:07.739Z,3.15
2018-02-09T14:34:36.131Z,2.96
2018-02-09T14:37:04.628Z,2.86
2018-02-09T14:39:32.975Z,2.41
2018-02-09T14:42:01.300Z,2.75
2018-02-09T14:44:29.596Z,2.81
2018-02-09T14:46:57.931Z,2.62
2018-02-09T14:49:26.374Z,2.55
2018-02-09T14:51:55.693Z,2.55
2018-02-09T14:54:24.375Z,2.52
2018-02-09T14:56:52.685Z,2.60
2018-02-09T14:59:21.051Z,2.44
2018-02-09T15:01:49.450Z,2.45
2018-02-09T15:04:18.559Z,2.39
2018-02-09T15:06:46.880Z,2.42
2018-02-09T15:09:15.387Z,2.36
2018-02-09T15:11:43.694Z,2.25
2018-02-09T15:14:11.980Z,2.27
2018-02-09T15:16:40.354Z,2.17
2018-02-09T15:19:08.687Z,2.01
2018-02-09T15:21:37.018Z,2.20
2018-02-09T15:24:05.375Z,2.17
2018-02-09T15:26:33.781Z,2.14
2018-02-09T15:29:02.086Z,2.07
2018-02-09T15:31:31.066Z,2.04
2018-02-09T15:33:59.427Z,1.95
2018-02-09T15:36:27.745Z,1.90
2018-02-09T15:38:56.206Z,1.82
2018-02-09T15:41:24.570Z,1.71
2018-02-09T15:43:53.046Z,1.69
2018-02-09T15:46:21.611Z,1.59
2018-02-09T15:48:49.920Z,1.58
2018-02-09T15:51:18.225Z,1.45
2018-02-09T15:53:46.858Z,1.39
2018-02-09T15:56:15.301Z,1.29
2018-02-09T15:58:44.190Z,1.25
2018-02-09T16:01:12.503Z,1.13
2018-02-09T16:03:41.021Z,1.08
2018-02-09T16:06:09.430Z,1.03
2018-02-09T16:08:37.774Z,1.00
2018-02-09T16:11:06.130Z,0.82
2018-02-09T16:13:34.443Z,0.64
2018-02-09T16:16:02.956Z,0.37
2018-02-09T16:18:32.289Z,0.30
2018-02-09T16:21:00.711Z,0.00
2018-02-09T16:23:29.086Z,0.20
2018-02-09T16:25:57.443Z,0.31
2018-02-09T16:28:26.466Z,0.04
2018-02-09T16:30:54.794Z,-0.29
2018-02-09T16:33:23.181Z,-0.08
2018-02-09T16:35:51.522Z,-0.16
2018-02-09T16:38:19.840Z,-0.20
2018-02-09T16:40:48.184Z,-0.10
2018-02-09T16:43:16.569Z,0.05
2018-02-09T16:45:45.036Z,0.13
2018-02-09T16:48:13.329Z,0.15
2018-02-09T16:50:41.635Z,0.05
2018-02-09T16:53:11.752Z,-0.12
2018-02-09T16:55:40.110Z,0.12
2018-02-09T16:58:08.489Z,0.04
2018-02-09T17:00:36.888Z,-0.02
2018-02-09T17:03:05.242Z,-0.28
2018-02-09T17:05:33.581Z,-0.28
2018-02-09T17:08:01.893Z,-0.29
2018-02-09T17:10:30.228Z,-0.32
2018-02-09T17:12:58.810Z,-0.48
2018-02-09T17:15:27.291Z,-0.62
2018-02-09T17:17:55.609Z,-0.64
2018-02-09T17:20:23.933Z,-0.82
2018-02-09T17:22:52.264Z,-0.76
2018-02-09T17:25:20.617Z,-0.79
2018-02-09T17:27:49.101Z,-0.74
2018-02-09T17:30:17.519Z,-0.79
2018-02-09T17:32:45.899Z,-0.72
2018-02-09T17:35:14.243Z,-0.76
2018-02-09T17:37:42.777Z,-0.83
2018-02-09T17:40:11.270Z,-0.82
2018-02-09T17:42:39.542Z,-0.90
2018-02-09T17:45:07.922Z,-0.79
2018-02-09T17:47:36.232Z,-0.94
2018-02-09T17:50:04.558Z,-0.86
2018-02-09T17:52:32.871Z,-0.84
2018-02-09T17:55:01.160Z,-0.89
2018-02-09T17:57:29.491Z,-0.85
2018-02-09T17:59:57.831Z,-0.93
2018-02-09T18:02:26.241Z,-0.75
2018-02-09T18:04:54.635Z,-0.80
2018-02-09T18:07:23.257Z,-0.89
2018-02-09T18:09:51.842Z,-0.71
2018-02-09T18:12:20.222Z,-0.59
2018-02-09T18:14:48.554Z,-0.47
2018-02-09T18:17:17.955Z,-0.29
2018-02-09T18:19:46.362Z,-0.25
2018-02-09T18:22:14.843Z,-0.17
2018-02-09T18:24:43.239Z,-0.10
2018-02-09T18:27:11.680Z,-0.34
2018-02-09T18:29:39.979Z,-0.61
2018-02-09T18:32:08.378Z,-0.47
2018-02-09T18:34:36.815Z,-0.50
2018-02-09T18:37:05.423Z,-0.60
2018-02-09T18:39:40.214Z,-0.65
2018-02-09T18:42:08.663Z,-0.45
2018-02-09T18:44:37.211Z,-0.53
2018-02-09T18:47:05.824Z,-0.54
2018-02-09T18:49:34.120Z,-0.46
2018-02-09T18:52:02.490Z,-0.40
2018-02-09T18:54:31.150Z,-0.66
2018-02-09T18:56:59.530Z,-0.60
2018-02-09T18:59:27.851Z,-0.66
2018-02-09T19:01:56.254Z,-0.77
2018-02-09T19:04:24.644Z,-0.59
2018-02-09T19:06:55.849Z,-0.54
2018-02-09T19:09:24.170Z,-0.46
2018-02-09T19:11:52.501Z,-0.62
2018-02-09T19:14:21.008Z,-0.62
2018-02-09T19:16:49.362Z,-0.65
2018-02-09T19:19:17.654Z,-0.60
2018-02-09T19:21:46.015Z,-0.55
2018-02-09T19:24:14.289Z,-0.49
2018-02-09T19:26:42.631Z,-0.49
2018-02-09T19:29:11.783Z,-0.53
2018-02-09T19:31:40.124Z,-0.32
2018-02-09T19:34:08.471Z,-0.39
2018-02-09T19:36:36.849Z,-0.36
2018-02-09T19:39:05.699Z,-0.35
2018-02-09T19:41:34.140Z,-0.28
2018-02-09T19:44:02.466Z,-0.37
2018-02-09T19:46:30.870Z,-0.45
2018-02-09T19:48:59.206Z,-0.42
2018-02-09T19:51:28.306Z,-0.40
2018-02-09T19:53:56.982Z,-0.36
2018-02-09T19:56:25.296Z,-0.28
2018-02-09T19:58:53.599Z,-0.31
2018-02-09T20:01:21.920Z,-0.32
2018-02-09T20:03:50.256Z,-0.26
2018-02-09T20:06:18.620Z,-0.10
2018-02-09T20:08:47.033Z,-0.10
2018-02-09T20:11:15.344Z,-0.26
2018-02-09T20:13:43.892Z,-0.15
2018-02-09T20:16:12.206Z,-0.18
2018-02-09T20:18:40.559Z,-0.16
2018-02-09T20:21:09.006Z,-0.19
2018-02-09T20:23:37.347Z,-0.17
2018-02-09T20:26:05.702Z,-0.19
2018-02-09T20:28:34.238Z,-0.11
2018-02-09T20:31:02.576Z,-0.08
2018-02-09T20:33:31.396Z,-0.14
2018-02-09T20:35:59.755Z,-0.14
2018-02-09T20:38:28.091Z,-0.20
2018-02-09T20:40:56.551Z,0.05
2018-02-09T20:43:25.064Z,-0.13
2018-02-09T20:45:53.482Z,-0.09
2018-02-09T20:48:21.777Z,0.35
2018-02-09T20:50:50.280Z,0.27
2018-02-09T20:53:18.684Z,-0.05
2018-02-09T20:55:47.023Z,-0.06
2018-02-09T20:58:15.351Z,-0.01
2018-02-09T21:00:43.787Z,0.10
2018-02-09T21:03:12.080Z,0.02
2018-02-09T21:05:40.398Z,0.09
2018-02-09T21:08:09.099Z,0.25
2018-02-09T21:10:37.432Z,0.23
2018-02-09T21:13:05.940Z,0.22
2018-02-09T21:15:34.358Z,0.10
2018-02-09T21:18:03.288Z,0.03
2018-02-09T21:20:31.594Z,0.07
2018-02-09T21:22:59.893Z,0.16
2018-02-09T21:25:28.223Z,0.18
2018-02-09T21:27:56.548Z,0.21
2018-02-09T21:30:24.895Z,0.36
2018-02-09T21:32:53.281Z,0.42
2018-02-09T21:35:21.606Z,0.19
2018-02-09T21:37:49.899Z,0.13
2018-02-09T21:40:18.421Z,0.38
2018-02-09T21:42:46.708Z,0.43
2018-02-09T21:45:15.048Z,0.37
2018-02-09T21:47:43.399Z,0.18
2018-02-09T21:50:11.719Z,0.35
2018-02-09T21:52:40.024Z,0.27
2018-02-09T21:55:08.339Z,0.23
2018-02-09T21:57:36.666Z,0.10
2018-02-09T22:00:05.036Z,0.09
2018-02-09T22:02:33.393Z,0.33
2018-02-09T22:05:01.668Z,0.38
2018-02-09T22:07:29.994Z,0.48
2018-02-09T22:09:58.350Z,0.34
2018-02-09T22:12:26.750Z,0.22
2018-02-09T22:14:55.035Z,0.30
2018-02-09T22:17:23.686Z,0.26
2018-02-09T22:19:52.151Z,0.38
2018-02-09T22:22:20.646Z,0.31
2018-02-09T22:24:48.988Z,0.24
2018-02-09T22:27:17.403Z,0.34
2018-02-09T22:29:46.045Z,0.18
2018-02-09T22:32:14.402Z,0.41
2018-02-09T22:34:42.703Z,0.28
2018-02-09T22:37:11.003Z,0.40
2018-02-09T22:39:39.554Z,0.28
2018-02-09T22:42:07.899Z,0.34
2018-02-09T22:44:36.348Z,0.31
2018-02-09T22:47:04.695Z,0.32
2018-02-09T22:49:33.092Z,0.10
2018-02-09T22:52:01.607Z,0.17
2018-02-09T22:54:30.128Z,0.22
2018-02-09T22:56:58.443Z,0.23
2018-02-09T22:59:26.851Z,0.13
2018-02-09T23:01:55.195Z,0.09
2018-02-09T23:04:24.261Z,0.14
2018-02-09T23:06:53.006Z,0.23
2018-02-09T23:09:21.498Z,0.08
2018-02-09T23:11:49.810Z,-0.12
2018-02-09T23:14:18.112Z,0.00
2018-02-09T23:16:46.733Z,-0.08
2018-02-09T23:19:15.058Z,-0.03
2018-02-09T23:21:43.461Z,-0.04
2018-02-09T23:24:12.270Z,-0.09
2018-02-09T23:26:40.655Z,-0.03
2018-02-09T23:29:11.142Z,-0.04
2018-02-09T23:31:40.400Z,0.02
2018-02-09T23:34:09.562Z,0.17
2018-02-09T23:36:37.925Z,0.13
2018-02-09T23:39:06.339Z,0.23
2018-02-09T23:41:34.875Z,0.15
2018-02-09T23:44:03.349Z,-0.05
2018-02-09T23:46:32.163Z,0.27
2018-02-09T23:49:00.519Z,0.24
2018-02-09T23:51:28.923Z,0.20
2018-02-09T23:53:57.455Z,0.34
2018-02-09T23:56:25.983Z,0.36
2018-02-09T23:58:54.795Z,0.18
